sensor_id;sensor_type;location;lat;lon;timestamp;pressure;altitude;pressure_sealevel;temperature;humidity
77124;BME280;66079;47.646;19.130;2023-02-28T00:02:57;101491.13;;;0.23;58.83
77124;BME280;66079;47.646;19.130;2023-02-28T00:06:04;101507.22;;;0.36;58.81
77124;BME280;66079;47.646;19.130;2023-02-28T00:09:07;101512.75;;;0.43;58.72
77124;BME280;66079;47.646;19.130;2023-02-28T00:12:09;101522.00;;;0.33;59.09
77124;BME280;66079;47.646;19.130;2023-02-28T00:15:12;101502.97;;;0.00;60.01
77124;BME280;66079;47.646;19.130;2023-02-28T00:18:16;101515.22;;;0.08;59.78
77124;BME280;66079;47.646;19.130;2023-02-28T00:21:19;101527.47;;;0.16;59.85
77124;BME280;66079;47.646;19.130;2023-02-28T00:24:22;101514.56;;;0.17;59.63
77124;BME280;66079;47.646;19.130;2023-02-28T00:27:25;101515.50;;;0.16;59.91
77124;BME280;66079;47.646;19.130;2023-02-28T00:30:28;101523.25;;;0.27;59.68
77124;BME280;66079;47.646;19.130;2023-02-28T00:33:31;101516.31;;;0.17;60.29
77124;BME280;66079;47.646;19.130;2023-02-28T00:36:33;101532.75;;;0.25;59.72
77124;BME280;66079;47.646;19.130;2023-02-28T00:39:39;101516.31;;;0.17;59.91
77124;BME280;66079;47.646;19.130;2023-02-28T00:42:42;101547.06;;;0.28;59.97
77124;BME280;66079;47.646;19.130;2023-02-28T00:45:44;101534.19;;;0.17;59.13
77124;BME280;66079;47.646;19.130;2023-02-28T00:48:47;101530.03;;;0.16;59.02
77124;BME280;66079;47.646;19.130;2023-02-28T00:51:50;101550.25;;;0.31;59.40
77124;BME280;66079;47.646;19.130;2023-02-28T00:54:54;101547.75;;;0.30;58.95
77124;BME280;66079;47.646;19.130;2023-02-28T00:57:56;101541.25;;;0.26;59.50
77124;BME280;66079;47.646;19.130;2023-02-28T01:01:00;101538.78;;;0.24;59.38
77124;BME280;66079;47.646;19.130;2023-02-28T01:04:02;101553.25;;;0.36;59.74
77124;BME280;66079;47.646;19.130;2023-02-28T01:07:05;101551.31;;;0.40;59.48
77124;BME280;66079;47.646;19.130;2023-02-28T01:10:09;101550.53;;;0.39;59.36
77124;BME280;66079;47.646;19.130;2023-02-28T01:13:15;101558.13;;;0.52;59.31
77124;BME280;66079;47.646;19.130;2023-02-28T01:16:18;101542.94;;;0.61;58.80
77124;BME280;66079;47.646;19.130;2023-02-28T01:19:20;101538.22;;;0.44;58.87
77124;BME280;66079;47.646;19.130;2023-02-28T01:22:23;101541.06;;;0.52;58.72
77124;BME280;66079;47.646;19.130;2023-02-28T01:25:26;101533.28;;;0.54;58.70
77124;BME280;66079;47.646;19.130;2023-02-28T01:28:29;101540.13;;;0.53;58.40
77124;BME280;66079;47.646;19.130;2023-02-28T01:31:32;101539.69;;;0.59;57.87
77124;BME280;66079;47.646;19.130;2023-02-28T01:34:35;101541.72;;;0.67;58.21
77124;BME280;66079;47.646;19.130;2023-02-28T01:37:38;101552.78;;;0.67;58.52
77124;BME280;66079;47.646;19.130;2023-02-28T01:40:41;101514.28;;;0.45;58.77
77124;BME280;66079;47.646;19.130;2023-02-28T01:46:47;101554.00;;;0.62;58.93
77124;BME280;66079;47.646;19.130;2023-02-28T01:49:50;101550.22;;;0.67;59.11
77124;BME280;66079;47.646;19.130;2023-02-28T01:52:57;101529.56;;;0.58;58.96
77124;BME280;66079;47.646;19.130;2023-02-28T01:56:03;101538.16;;;0.57;59.78
77124;BME280;66079;47.646;19.130;2023-02-28T01:59:09;101526.56;;;0.40;59.75
77124;BME280;66079;47.646;19.130;2023-02-28T02:02:13;101548.41;;;0.57;59.92
77124;BME280;66079;47.646;19.130;2023-02-28T02:05:21;101537.00;;;0.37;60.58
77124;BME280;66079;47.646;19.130;2023-02-28T02:08:28;101535.28;;;0.38;60.62
77124;BME280;66079;47.646;19.130;2023-02-28T02:11:31;101538.63;;;0.38;60.84
77124;BME280;66079;47.646;19.130;2023-02-28T02:14:43;101548.84;;;0.51;61.03
77124;BME280;66079;47.646;19.130;2023-02-28T02:17:56;101531.56;;;0.42;61.41
77124;BME280;66079;47.646;19.130;2023-02-28T02:35:39;101527.25;;;0.66;61.15
77124;BME280;66079;47.646;19.130;2023-02-28T02:39:18;101530.50;;;0.57;60.24
77124;BME280;66079;47.646;19.130;2023-02-28T02:42:29;101530.03;;;0.63;59.89
77124;BME280;66079;47.646;19.130;2023-02-28T02:45:43;101521.09;;;0.57;59.23
77124;BME280;66079;47.646;19.130;2023-02-28T02:48:50;101522.25;;;0.64;58.82
77124;BME280;66079;47.646;19.130;2023-02-28T02:52:00;101524.28;;;0.72;58.24
77124;BME280;66079;47.646;19.130;2023-02-28T02:55:08;101528.50;;;0.84;58.27
77124;BME280;66079;47.646;19.130;2023-02-28T02:58:16;101542.63;;;0.89;58.24
77124;BME280;66079;47.646;19.130;2023-02-28T03:01:24;101538.53;;;0.87;57.87
77124;BME280;66079;47.646;19.130;2023-02-28T03:04:36;101514.38;;;0.67;58.41
77124;BME280;66079;47.646;19.130;2023-02-28T03:07:42;101538.69;;;0.73;58.43
77124;BME280;66079;47.646;19.130;2023-02-28T03:10:48;101530.00;;;0.75;58.93
77124;BME280;66079;47.646;19.130;2023-02-28T03:26:42;101538.47;;;0.76;59.09
77124;BME280;66079;47.646;19.130;2023-02-28T03:29:50;101544.75;;;0.72;59.50
77124;BME280;66079;47.646;19.130;2023-02-28T03:33:01;101543.94;;;0.71;59.56
77124;BME280;66079;47.646;19.130;2023-02-28T03:36:12;101529.56;;;0.58;59.67
77124;BME280;66079;47.646;19.130;2023-02-28T03:39:27;101550.03;;;0.81;59.69
77124;BME280;66079;47.646;19.130;2023-02-28T03:42:31;101546.97;;;0.76;59.71
77124;BME280;66079;47.646;19.130;2023-02-28T03:45:37;101537.41;;;0.67;59.84
77124;BME280;66079;47.646;19.130;2023-02-28T03:48:49;101550.66;;;0.72;60.12
77124;BME280;66079;47.646;19.130;2023-02-28T03:51:54;101554.28;;;0.70;60.42
77124;BME280;66079;47.646;19.130;2023-02-28T03:55:03;101540.06;;;0.66;60.10
77124;BME280;66079;47.646;19.130;2023-02-28T04:01:28;101549.91;;;0.83;60.12
77124;BME280;66079;47.646;19.130;2023-02-28T04:04:33;101535.63;;;0.80;59.42
77124;BME280;66079;47.646;19.130;2023-02-28T04:07:36;101547.34;;;0.83;59.65
77124;BME280;66079;47.646;19.130;2023-02-28T04:10:39;101547.63;;;0.91;59.59
77124;BME280;66079;47.646;19.130;2023-02-28T04:13:42;101548.56;;;0.90;59.20
77124;BME280;66079;47.646;19.130;2023-02-28T04:16:48;101533.63;;;0.84;59.37
77124;BME280;66079;47.646;19.130;2023-02-28T04:19:50;101542.06;;;0.97;59.06
77124;BME280;66079;47.646;19.130;2023-02-28T04:22:53;101537.97;;;0.94;58.76
77124;BME280;66079;47.646;19.130;2023-02-28T04:25:56;101537.84;;;0.85;58.53
77124;BME280;66079;47.646;19.130;2023-02-28T04:28:59;101528.09;;;0.90;58.42
77124;BME280;66079;47.646;19.130;2023-02-28T04:32:02;101533.09;;;0.91;58.55
77124;BME280;66079;47.646;19.130;2023-02-28T04:35:05;101532.97;;;0.93;58.43
77124;BME280;66079;47.646;19.130;2023-02-28T04:38:08;101516.06;;;0.90;57.63
77124;BME280;66079;47.646;19.130;2023-02-28T04:41:12;101513.16;;;0.84;58.43
77124;BME280;66079;47.646;19.130;2023-02-28T04:44:15;101526.22;;;0.92;58.54
77124;BME280;66079;47.646;19.130;2023-02-28T04:47:17;101517.38;;;0.96;58.37
77124;BME280;66079;47.646;19.130;2023-02-28T04:50:20;101513.91;;;0.97;57.57
77124;BME280;66079;47.646;19.130;2023-02-28T04:53:22;101526.13;;;0.93;57.90
77124;BME280;66079;47.646;19.130;2023-02-28T04:56:26;101522.50;;;0.96;58.05
77124;BME280;66079;47.646;19.130;2023-02-28T04:59:28;101511.59;;;1.05;58.11
77124;BME280;66079;47.646;19.130;2023-02-28T05:02:34;101534.41;;;1.08;57.97
77124;BME280;66079;47.646;19.130;2023-02-28T05:05:37;101525.19;;;0.94;58.10
77124;BME280;66079;47.646;19.130;2023-02-28T05:08:40;101528.09;;;1.01;57.62
77124;BME280;66079;47.646;19.130;2023-02-28T05:11:43;101527.94;;;1.15;57.06
77124;BME280;66079;47.646;19.130;2023-02-28T05:14:45;101507.50;;;1.02;57.27
77124;BME280;66079;47.646;19.130;2023-02-28T05:17:48;101522.81;;;1.15;57.02
77124;BME280;66079;47.646;19.130;2023-02-28T05:20:51;101517.78;;;1.13;57.29
77124;BME280;66079;47.646;19.130;2023-02-28T05:23:55;101517.47;;;1.18;57.52
77124;BME280;66079;47.646;19.130;2023-02-28T05:26:58;101520.69;;;1.20;57.14
77124;BME280;66079;47.646;19.130;2023-02-28T05:30:01;101525.16;;;1.29;56.81
77124;BME280;66079;47.646;19.130;2023-02-28T05:33:06;101527.38;;;1.33;56.62
77124;BME280;66079;47.646;19.130;2023-02-28T05:36:12;101544.50;;;1.44;56.82
77124;BME280;66079;47.646;19.130;2023-02-28T05:39:16;101536.59;;;1.36;56.48
77124;BME280;66079;47.646;19.130;2023-02-28T05:42:18;101546.47;;;1.41;56.13
77124;BME280;66079;47.646;19.130;2023-02-28T05:45:21;101540.19;;;1.45;55.98
77124;BME280;66079;47.646;19.130;2023-02-28T05:48:24;101548.69;;;1.56;55.56
77124;BME280;66079;47.646;19.130;2023-02-28T05:51:28;101562.00;;;1.61;54.93
77124;BME280;66079;47.646;19.130;2023-02-28T05:54:31;101558.88;;;1.69;54.92
77124;BME280;66079;47.646;19.130;2023-02-28T05:57:34;101554.31;;;1.61;54.62
77124;BME280;66079;47.646;19.130;2023-02-28T06:00:36;101569.47;;;1.75;54.40
77124;BME280;66079;47.646;19.130;2023-02-28T06:03:39;101568.28;;;1.68;53.94
77124;BME280;66079;47.646;19.130;2023-02-28T06:06:41;101564.06;;;1.56;53.98
77124;BME280;66079;47.646;19.130;2023-02-28T06:09:44;101577.97;;;1.65;54.69
77124;BME280;66079;47.646;19.130;2023-02-28T06:12:46;101580.41;;;1.66;54.33
77124;BME280;66079;47.646;19.130;2023-02-28T06:15:49;101574.38;;;1.78;53.51
77124;BME280;66079;47.646;19.130;2023-02-28T06:18:52;101551.63;;;1.63;53.71
77124;BME280;66079;47.646;19.130;2023-02-28T06:22:00;101576.91;;;1.89;53.14
77124;BME280;66079;47.646;19.130;2023-02-28T06:25:04;101577.97;;;1.98;52.73
77124;BME280;66079;47.646;19.130;2023-02-28T06:28:07;101569.34;;;1.99;52.95
77124;BME280;66079;47.646;19.130;2023-02-28T06:31:12;101576.69;;;2.14;52.65
77124;BME280;66079;47.646;19.130;2023-02-28T06:34:16;101576.94;;;2.11;52.39
77124;BME280;66079;47.646;19.130;2023-02-28T06:37:18;101581.34;;;2.09;53.13
77124;BME280;66079;47.646;19.130;2023-02-28T06:40:21;101559.66;;;2.02;51.91
77124;BME280;66079;47.646;19.130;2023-02-28T06:43:24;101573.31;;;2.25;51.94
77124;BME280;66079;47.646;19.130;2023-02-28T06:46:27;101574.47;;;2.21;51.92
77124;BME280;66079;47.646;19.130;2023-02-28T06:49:31;101586.47;;;2.42;51.08
77124;BME280;66079;47.646;19.130;2023-02-28T06:52:33;101572.84;;;2.31;50.87
77124;BME280;66079;47.646;19.130;2023-02-28T06:55:40;101584.47;;;2.35;51.47
77124;BME280;66079;47.646;19.130;2023-02-28T06:58:49;101598.09;;;2.46;51.77
77124;BME280;66079;47.646;19.130;2023-02-28T07:01:52;101597.44;;;2.44;50.62
77124;BME280;66079;47.646;19.130;2023-02-28T07:04:54;101591.53;;;2.64;50.20
77124;BME280;66079;47.646;19.130;2023-02-28T07:07:57;101573.97;;;2.49;50.31
77124;BME280;66079;47.646;19.130;2023-02-28T07:11:00;101585.34;;;2.67;50.21
77124;BME280;66079;47.646;19.130;2023-02-28T07:14:02;101600.66;;;2.89;49.99
77124;BME280;66079;47.646;19.130;2023-02-28T07:17:07;101605.34;;;2.95;48.82
77124;BME280;66079;47.646;19.130;2023-02-28T07:20:11;101593.34;;;3.16;48.02
77124;BME280;66079;47.646;19.130;2023-02-28T07:23:14;101602.31;;;3.22;47.55
77124;BME280;66079;47.646;19.130;2023-02-28T07:26:17;101594.81;;;3.30;47.30
77124;BME280;66079;47.646;19.130;2023-02-28T07:29:21;101616.00;;;3.43;46.76
77124;BME280;66079;47.646;19.130;2023-02-28T07:32:23;101607.72;;;3.39;46.61
77124;BME280;66079;47.646;19.130;2023-02-28T07:35:26;101607.41;;;3.33;46.10
77124;BME280;66079;47.646;19.130;2023-02-28T07:38:29;101611.66;;;3.23;45.93
77124;BME280;66079;47.646;19.130;2023-02-28T07:41:32;101612.81;;;3.19;45.47
77124;BME280;66079;47.646;19.130;2023-02-28T07:44:36;101597.78;;;3.14;45.48
77124;BME280;66079;47.646;19.130;2023-02-28T07:47:43;101617.88;;;3.41;45.37
77124;BME280;66079;47.646;19.130;2023-02-28T07:50:54;101620.50;;;3.50;45.18
77124;BME280;66079;47.646;19.130;2023-02-28T07:53:58;101622.34;;;3.59;44.74
77124;BME280;66079;47.646;19.130;2023-02-28T07:57:01;101613.66;;;3.60;44.96
77124;BME280;66079;47.646;19.130;2023-02-28T08:00:04;101610.09;;;3.72;44.15
77124;BME280;66079;47.646;19.130;2023-02-28T08:03:13;101613.91;;;4.08;43.75
77124;BME280;66079;47.646;19.130;2023-02-28T08:06:19;101609.06;;;4.15;43.09
77124;BME280;66079;47.646;19.130;2023-02-28T08:09:22;101606.94;;;4.29;42.72
77124;BME280;66079;47.646;19.130;2023-02-28T08:12:25;101609.75;;;4.56;42.69
77124;BME280;66079;47.646;19.130;2023-02-28T08:15:28;101623.97;;;4.70;42.41
77124;BME280;66079;47.646;19.130;2023-02-28T08:18:32;101626.03;;;4.66;42.61
77124;BME280;66079;47.646;19.130;2023-02-28T08:21:35;101612.47;;;4.74;41.68
77124;BME280;66079;47.646;19.130;2023-02-28T08:24:37;101632.31;;;5.11;41.75
77124;BME280;66079;47.646;19.130;2023-02-28T08:27:41;101628.63;;;4.85;41.51
77124;BME280;66079;47.646;19.130;2023-02-28T08:30:44;101620.38;;;5.29;41.12
77124;BME280;66079;47.646;19.130;2023-02-28T08:33:47;101633.09;;;5.40;41.57
77124;BME280;66079;47.646;19.130;2023-02-28T08:36:51;101618.88;;;5.36;41.13
77124;BME280;66079;47.646;19.130;2023-02-28T08:39:56;101633.13;;;5.21;41.74
77124;BME280;66079;47.646;19.130;2023-02-28T08:42:59;101627.03;;;5.41;41.22
77124;BME280;66079;47.646;19.130;2023-02-28T08:46:02;101623.59;;;5.51;41.45
77124;BME280;66079;47.646;19.130;2023-02-28T08:49:05;101624.56;;;5.50;41.64
77124;BME280;66079;47.646;19.130;2023-02-28T08:52:09;101629.84;;;5.29;42.11
77124;BME280;66079;47.646;19.130;2023-02-28T08:55:12;101607.03;;;5.63;41.33
77124;BME280;66079;47.646;19.130;2023-02-28T08:58:14;101623.06;;;5.37;41.54
77124;BME280;66079;47.646;19.130;2023-02-28T09:01:19;101623.06;;;5.57;41.32
77124;BME280;66079;47.646;19.130;2023-02-28T09:04:22;101628.09;;;6.14;40.64
77124;BME280;66079;47.646;19.130;2023-02-28T09:07:26;101619.19;;;5.99;40.34
77124;BME280;66079;47.646;19.130;2023-02-28T09:10:29;101622.16;;;6.58;39.62
77124;BME280;66079;47.646;19.130;2023-02-28T09:13:32;101616.34;;;6.56;39.02
77124;BME280;66079;47.646;19.130;2023-02-28T09:16:35;101610.16;;;7.02;38.71
77124;BME280;66079;47.646;19.130;2023-02-28T09:19:39;101621.75;;;7.15;37.73
77124;BME280;66079;47.646;19.130;2023-02-28T09:22:43;101614.72;;;6.72;37.39
77124;BME280;66079;47.646;19.130;2023-02-28T09:25:48;101619.84;;;7.00;37.06
77124;BME280;66079;47.646;19.130;2023-02-28T09:28:52;101620.41;;;7.11;35.21
77124;BME280;66079;47.646;19.130;2023-02-28T09:31:55;101604.97;;;7.19;34.64
77124;BME280;66079;47.646;19.130;2023-02-28T09:35:01;101618.38;;;7.58;34.55
77124;BME280;66079;47.646;19.130;2023-02-28T09:38:04;101617.88;;;8.05;34.32
77124;BME280;66079;47.646;19.130;2023-02-28T09:41:14;101612.44;;;7.65;34.22
77124;BME280;66079;47.646;19.130;2023-02-28T09:44:38;101627.38;;;7.28;35.06
77124;BME280;66079;47.646;19.130;2023-02-28T09:47:47;101624.75;;;7.46;34.69
77124;BME280;66079;47.646;19.130;2023-02-28T09:50:55;101628.84;;;7.48;34.57
77124;BME280;66079;47.646;19.130;2023-02-28T09:54:01;101620.13;;;7.75;34.71
77124;BME280;66079;47.646;19.130;2023-02-28T10:00:20;101628.44;;;7.86;34.92
77124;BME280;66079;47.646;19.130;2023-02-28T10:03:31;101626.78;;;8.37;33.89
77124;BME280;66079;47.646;19.130;2023-02-28T10:06:44;101621.25;;;9.21;32.98
77124;BME280;66079;47.646;19.130;2023-02-28T10:09:53;101614.34;;;10.01;31.25
77124;BME280;66079;47.646;19.130;2023-02-28T10:12:59;101600.72;;;11.21;29.34
77124;BME280;66079;47.646;19.130;2023-02-28T10:16:16;101595.97;;;11.91;27.47
77124;BME280;66079;47.646;19.130;2023-02-28T10:19:35;101608.00;;;14.30;24.81
77124;BME280;66079;47.646;19.130;2023-02-28T10:26:21;101608.28;;;13.18;26.27
77124;BME280;66079;47.646;19.130;2023-02-28T10:29:31;101591.53;;;12.71;26.25
77124;BME280;66079;47.646;19.130;2023-02-28T10:32:35;101589.59;;;12.23;27.11
77124;BME280;66079;47.646;19.130;2023-02-28T10:35:41;101588.94;;;12.71;27.28
77124;BME280;66079;47.646;19.130;2023-02-28T10:38:45;101591.75;;;13.11;26.72
77124;BME280;66079;47.646;19.130;2023-02-28T10:41:48;101584.22;;;13.85;26.07
77124;BME280;66079;47.646;19.130;2023-02-28T10:45:11;101585.84;;;15.19;23.91
77124;BME280;66079;47.646;19.130;2023-02-28T10:51:19;101583.38;;;17.76;20.98
77124;BME280;66079;47.646;19.130;2023-02-28T10:54:35;101585.38;;;17.07;21.64
77124;BME280;66079;47.646;19.130;2023-02-28T10:57:40;101570.00;;;16.04;22.35
77124;BME280;66079;47.646;19.130;2023-02-28T11:00:43;101562.53;;;17.57;20.97
77124;BME280;66079;47.646;19.130;2023-02-28T11:03:45;101567.78;;;18.11;20.83
77124;BME280;66079;47.646;19.130;2023-02-28T11:10:00;101554.38;;;19.13;19.57
77124;BME280;66079;47.646;19.130;2023-02-28T11:13:03;101558.28;;;20.19;18.80
77124;BME280;66079;47.646;19.130;2023-02-28T11:16:09;101565.47;;;19.26;19.34
77124;BME280;66079;47.646;19.130;2023-02-28T11:19:20;101565.06;;;16.96;22.36
77124;BME280;66079;47.646;19.130;2023-02-28T11:22:27;101536.03;;;14.47;25.38
77124;BME280;66079;47.646;19.130;2023-02-28T11:25:36;101545.44;;;13.88;26.49
77124;BME280;66079;47.646;19.130;2023-02-28T11:28:41;101556.53;;;12.44;29.11
77124;BME280;66079;47.646;19.130;2023-02-28T11:32:21;101555.91;;;12.42;29.15
77124;BME280;66079;47.646;19.130;2023-02-28T11:35:43;101555.06;;;11.48;30.77
77124;BME280;66079;47.646;19.130;2023-02-28T11:38:48;101561.88;;;10.74;31.76
77124;BME280;66079;47.646;19.130;2023-02-28T11:45:45;101551.00;;;11.31;30.75
77124;BME280;66079;47.646;19.130;2023-02-28T11:52:21;101534.78;;;11.72;30.46
77124;BME280;66079;47.646;19.130;2023-02-28T12:05:57;101529.09;;;11.40;31.33
77124;BME280;66079;47.646;19.130;2023-02-28T12:12:38;101527.50;;;12.68;29.63
77124;BME280;66079;47.646;19.130;2023-02-28T12:19:00;101501.97;;;12.43;29.34
77124;BME280;66079;47.646;19.130;2023-02-28T12:28:57;101500.91;;;11.58;30.34
77124;BME280;66079;47.646;19.130;2023-02-28T12:32:09;101491.41;;;11.21;31.29
77124;BME280;66079;47.646;19.130;2023-02-28T12:35:19;101497.75;;;10.67;32.49
77124;BME280;66079;47.646;19.130;2023-02-28T12:38:30;101496.16;;;10.35;33.30
77124;BME280;66079;47.646;19.130;2023-02-28T12:41:51;101491.38;;;10.69;32.53
77124;BME280;66079;47.646;19.130;2023-02-28T12:45:01;101499.59;;;10.96;32.08
77124;BME280;66079;47.646;19.130;2023-02-28T12:48:14;101499.25;;;12.15;30.76
77124;BME280;66079;47.646;19.130;2023-02-28T12:51:18;101495.94;;;12.63;29.59
77124;BME280;66079;47.646;19.130;2023-02-28T12:54:35;101499.22;;;14.55;27.16
77124;BME280;66079;47.646;19.130;2023-02-28T12:57:47;101471.41;;;15.20;25.60
77124;BME280;66079;47.646;19.130;2023-02-28T13:10:57;101474.81;;;13.69;28.03
77124;BME280;66079;47.646;19.130;2023-02-28T13:14:06;101470.03;;;13.85;27.63
77124;BME280;66079;47.646;19.130;2023-02-28T13:17:20;101474.72;;;13.15;28.57
77124;BME280;66079;47.646;19.130;2023-02-28T13:20:25;101479.47;;;13.86;28.44
77124;BME280;66079;47.646;19.130;2023-02-28T13:23:40;101475.06;;;14.73;26.54
77124;BME280;66079;47.646;19.130;2023-02-28T13:29:52;101468.00;;;13.40;28.27
77124;BME280;66079;47.646;19.130;2023-02-28T13:36:47;101464.25;;;12.66;29.79
77124;BME280;66079;47.646;19.130;2023-02-28T13:43:17;101462.78;;;11.50;32.26
77124;BME280;66079;47.646;19.130;2023-02-28T13:46:35;101450.75;;;11.49;32.08
77124;BME280;66079;47.646;19.130;2023-02-28T13:49:38;101448.66;;;11.45;32.14
77124;BME280;66079;47.646;19.130;2023-02-28T13:56:26;101452.28;;;13.61;29.30
77124;BME280;66079;47.646;19.130;2023-02-28T14:03:10;101438.78;;;13.58;29.13
77124;BME280;66079;47.646;19.130;2023-02-28T14:09:38;101436.22;;;13.71;29.15
77124;BME280;66079;47.646;19.130;2023-02-28T14:16:06;101419.47;;;12.84;30.13
77124;BME280;66079;47.646;19.130;2023-02-28T14:19:21;101427.19;;;12.50;31.25
77124;BME280;66079;47.646;19.130;2023-02-28T14:26:10;101418.72;;;11.84;32.32
77124;BME280;66079;47.646;19.130;2023-02-28T14:36:11;101418.88;;;11.04;33.72
77124;BME280;66079;47.646;19.130;2023-02-28T14:39:25;101408.44;;;10.89;33.70
77124;BME280;66079;47.646;19.130;2023-02-28T14:42:33;101413.94;;;10.94;33.88
77124;BME280;66079;47.646;19.130;2023-02-28T14:45:36;101419.44;;;10.39;35.28
77124;BME280;66079;47.646;19.130;2023-02-28T14:48:39;101411.34;;;9.89;35.80
77124;BME280;66079;47.646;19.130;2023-02-28T14:51:43;101407.38;;;9.71;36.34
77124;BME280;66079;47.646;19.130;2023-02-28T14:54:54;101421.59;;;9.52;36.68
77124;BME280;66079;47.646;19.130;2023-02-28T14:58:03;101430.94;;;9.61;36.49
77124;BME280;66079;47.646;19.130;2023-02-28T15:01:10;101425.22;;;9.35;37.43
77124;BME280;66079;47.646;19.130;2023-02-28T15:04:26;101430.13;;;9.22;38.06
77124;BME280;66079;47.646;19.130;2023-02-28T15:07:35;101429.81;;;9.09;38.71
77124;BME280;66079;47.646;19.130;2023-02-28T15:10:42;101418.16;;;9.05;38.87
77124;BME280;66079;47.646;19.130;2023-02-28T15:13:48;101401.38;;;8.61;39.32
77124;BME280;66079;47.646;19.130;2023-02-28T15:16:56;101430.53;;;8.55;39.67
77124;BME280;66079;47.646;19.130;2023-02-28T15:20:00;101416.94;;;8.77;39.86
77124;BME280;66079;47.646;19.130;2023-02-28T15:23:03;101414.16;;;8.70;39.76
77124;BME280;66079;47.646;19.130;2023-02-28T15:26:06;101433.13;;;8.47;40.41
77124;BME280;66079;47.646;19.130;2023-02-28T15:29:17;101418.88;;;8.43;40.48
77124;BME280;66079;47.646;19.130;2023-02-28T15:32:31;101432.16;;;8.72;40.32
77124;BME280;66079;47.646;19.130;2023-02-28T15:35:34;101424.69;;;8.69;40.42
77124;BME280;66079;47.646;19.130;2023-02-28T15:38:37;101417.59;;;8.55;40.25
77124;BME280;66079;47.646;19.130;2023-02-28T15:41:40;101424.69;;;8.53;40.77
77124;BME280;66079;47.646;19.130;2023-02-28T15:44:42;101402.66;;;8.25;41.18
77124;BME280;66079;47.646;19.130;2023-02-28T15:47:46;101409.91;;;8.05;41.85
77124;BME280;66079;47.646;19.130;2023-02-28T15:50:54;101402.63;;;8.08;43.06
77124;BME280;66079;47.646;19.130;2023-02-28T15:54:00;101405.19;;;7.92;42.60
77124;BME280;66079;47.646;19.130;2023-02-28T15:57:05;101421.03;;;7.89;43.42
77124;BME280;66079;47.646;19.130;2023-02-28T16:00:13;101401.22;;;7.56;44.10
77124;BME280;66079;47.646;19.130;2023-02-28T16:03:26;101407.97;;;7.49;44.02
77124;BME280;66079;47.646;19.130;2023-02-28T16:06:37;101423.50;;;7.49;44.54
77124;BME280;66079;47.646;19.130;2023-02-28T16:09:41;101413.53;;;7.29;44.95
77124;BME280;66079;47.646;19.130;2023-02-28T16:12:44;101416.84;;;7.13;45.27
77124;BME280;66079;47.646;19.130;2023-02-28T16:15:47;101420.91;;;7.16;45.59
77124;BME280;66079;47.646;19.130;2023-02-28T16:18:51;101435.28;;;7.18;45.90
77124;BME280;66079;47.646;19.130;2023-02-28T16:21:54;101425.03;;;7.01;46.12
77124;BME280;66079;47.646;19.130;2023-02-28T16:24:57;101430.56;;;6.88;46.11
77124;BME280;66079;47.646;19.130;2023-02-28T16:28:01;101428.00;;;6.88;46.12
77124;BME280;66079;47.646;19.130;2023-02-28T16:31:06;101428.75;;;6.81;46.68
77124;BME280;66079;47.646;19.130;2023-02-28T16:34:09;101429.28;;;6.84;46.45
77124;BME280;66079;47.646;19.130;2023-02-28T16:37:14;101417.75;;;6.78;46.67
77124;BME280;66079;47.646;19.130;2023-02-28T16:40:22;101420.81;;;6.74;46.74
77124;BME280;66079;47.646;19.130;2023-02-28T16:43:26;101427.00;;;6.63;47.12
77124;BME280;66079;47.646;19.130;2023-02-28T16:46:34;101426.38;;;6.61;46.98
77124;BME280;66079;47.646;19.130;2023-02-28T16:49:37;101435.38;;;6.57;47.60
77124;BME280;66079;47.646;19.130;2023-02-28T16:52:40;101456.47;;;6.70;47.48
77124;BME280;66079;47.646;19.130;2023-02-28T16:55:43;101453.66;;;6.64;47.16
77124;BME280;66079;47.646;19.130;2023-02-28T16:58:47;101453.16;;;6.60;47.73
77124;BME280;66079;47.646;19.130;2023-02-28T17:01:50;101435.00;;;6.52;47.42
77124;BME280;66079;47.646;19.130;2023-02-28T17:04:54;101461.50;;;6.54;47.59
77124;BME280;66079;47.646;19.130;2023-02-28T17:07:56;101461.13;;;6.49;48.42
77124;BME280;66079;47.646;19.130;2023-02-28T17:10:59;101457.50;;;6.42;48.10
77124;BME280;66079;47.646;19.130;2023-02-28T17:14:03;101457.34;;;6.44;48.04
77124;BME280;66079;47.646;19.130;2023-02-28T17:17:09;101469.75;;;6.40;48.28
77124;BME280;66079;47.646;19.130;2023-02-28T17:20:14;101459.88;;;6.36;48.92
77124;BME280;66079;47.646;19.130;2023-02-28T17:23:18;101469.25;;;6.37;48.52
77124;BME280;66079;47.646;19.130;2023-02-28T17:26:22;101470.66;;;6.31;49.06
77124;BME280;66079;47.646;19.130;2023-02-28T17:29:26;101470.13;;;6.28;48.89
77124;BME280;66079;47.646;19.130;2023-02-28T17:32:29;101455.06;;;6.23;49.23
77124;BME280;66079;47.646;19.130;2023-02-28T17:35:32;101469.81;;;6.31;49.66
77124;BME280;66079;47.646;19.130;2023-02-28T17:38:35;101449.09;;;6.05;49.71
77124;BME280;66079;47.646;19.130;2023-02-28T17:41:37;101474.47;;;6.27;49.86
77124;BME280;66079;47.646;19.130;2023-02-28T17:44:40;101477.50;;;6.23;49.76
77124;BME280;66079;47.646;19.130;2023-02-28T17:47:46;101478.47;;;6.22;50.08
77124;BME280;66079;47.646;19.130;2023-02-28T17:50:50;101463.75;;;6.22;50.36
77124;BME280;66079;47.646;19.130;2023-02-28T17:53:52;101470.41;;;6.25;50.40
77124;BME280;66079;47.646;19.130;2023-02-28T17:56:55;101471.28;;;6.16;50.77
77124;BME280;66079;47.646;19.130;2023-02-28T17:59:58;101473.59;;;6.19;50.78
77124;BME280;66079;47.646;19.130;2023-02-28T18:03:01;101465.19;;;6.17;50.80
77124;BME280;66079;47.646;19.130;2023-02-28T18:06:04;101468.00;;;6.23;50.75
77124;BME280;66079;47.646;19.130;2023-02-28T18:09:08;101471.00;;;6.19;50.84
77124;BME280;66079;47.646;19.130;2023-02-28T18:12:10;101481.19;;;6.20;51.22